• Join FlightAware (Why Join?)
  • Login
  • US Flag 
Rudolph Flight #1: Arrived! 
11:40AM EST


 

Airport Tracker/Info


-or-


 

Live Flight TrackerFlight Track Log ✈ XOJ793 ✈ 12-Aug-2014 ✈ KMRY - KBFI

Flight Track Log - Related Links

Times and Time Zones

All times are in EDT time to prevent confusion due to time zone crossing. See the XOJ793 flight status page for this flight to view local times or setup timezone preferences in your user account.

Time Position Orientation Groundspeed Altitude Reporting Facility
EDT Latitude Longitude Course Direction KTS MPH feet Rate Location/Type
01:59PM 36.6667 -121.8667 329° Northwest 281 323 6,600  Level Northern Cal TRACON
02:00PM 36.6833 -121.9500 284° West 259 298 12,000 4,680 Climbing Northern Cal TRACON
02:01PM 36.7167 -122.0333 297° West 300 345 16,100 3,120 Climbing Northern Cal TRACON
02:02PM 36.7486 -122.1275 293° West 319 367 17,800 2,220 Climbing Oakland Center
02:03PM 36.8317 -122.2117 321° Northwest 386 444 20,300 2,820 Climbing Oakland Center
02:04PM 36.9139 -122.2819 326° Northwest 364 419 23,600 2,460 Climbing Oakland Center
02:05PM 37.0000 -122.3592 324° Northwest 377 434 25,400 1,560 Climbing Oakland Center
02:06PM 37.0936 -122.4414 325° Northwest 406 467 26,900 1,440 Climbing Oakland Center
02:07PM 37.2083 -122.4939 340° North 436 502 28,400 1,440 Climbing Oakland Center
02:08PM 37.3267 -122.5444 341° North 447 514 29,900 1,560 Climbing Oakland Center
02:09PM 37.4719 -122.6047 342° North 455 524 31,700 1,440 Climbing Oakland Center
02:10PM 37.6044 -122.6300 351° North 484 557 32,900 1,200 Climbing Oakland Center
02:11PM 37.7439 -122.6286 360° North 498 573 34,200 1,140 Climbing Oakland Center
02:12PM 37.8744 -122.6256 North 504 580 35,300 1,200 Climbing Oakland Center
02:13PM 38.0408 -122.6267 360° North 512 589 36,700 1,200 Climbing Oakland Center
02:14PM 38.1833 -122.6253 360° North 511 588 37,900 1,140 Climbing Oakland Center
02:15PM 38.3233 -122.6250 360° North 506 582 39,100 1,140 Climbing Oakland Center
02:16PM 38.4633 -122.6253 360° North 505 581 40,300 1,080 Climbing Oakland Center
02:17PM 38.6050 -122.6244 360° North 507 583 41,400 1,020 Climbing Oakland Center
02:18PM 38.7472 -122.6247 360° North 509 586 42,400 780 Climbing Oakland Center
02:19PM 38.9167 -122.6231 360° North 509 586 43,000 240 Climbing Oakland Center
02:20PM 39.0417 -122.6233 360° North 512 589 43,000  Level Oakland Center
02:21PM 39.1875 -122.6217 North 520 598 43,000  Level Oakland Center
02:22PM 39.3367 -122.6228 360° North 520 598 43,000  Level Oakland Center
02:23PM 39.5114 -122.6206 North 521 600 43,000  Level Oakland Center
02:24PM 39.6569 -122.6203 360° North 521 600 43,000  Level Oakland Center
02:25PM 39.8039 -122.6206 360° North 522 601 43,000  Level Oakland Center
02:27PM 39.9503 -122.6211 360° North 524 603 43,000  Level Oakland Center
02:28PM 40.1008 -122.6222 360° North 527 606 43,000  Level Oakland Center
02:29PM 40.2511 -122.6203 North 528 608 43,000  Level Oakland Center
02:30PM 40.4003 -122.6183 North 529 609 43,000  Level Oakland Center
02:31PM 40.5481 -122.6175 360° North 528 608 43,000  Level Oakland Center
02:32PM 40.6958 -122.6175 360° North 528 608 43,000  Level Oakland Center
02:33PM 40.8450 -122.6175 360° North 542 624 43,000  Level Oakland Center
02:34PM 41.0239 -122.6153 North 537 618 43,000  Level Oakland Center
02:35PM 41.1750 -122.6167 360° North 538 619 43,000  Level Oakland Center
02:36PM 41.3261 -122.6158 360° North 540 621 43,000  Level Oakland Center
02:37PM 41.4825 -122.6128 North 545 627 43,000  Level Oakland Center
02:38PM 41.6358 -122.6125 360° North 548 631 43,000  Level Oakland Center
02:39PM 41.7892 -122.6111 360° North 549 632 43,000  Level Oakland Center
02:40PM 41.9431 -122.6106 360° North 552 635 43,000  Level Oakland Center
02:41PM 42.0969 -122.6094 360° North 550 633 43,000  Level Oakland Center
02:42PM 42.2511 -122.6089 360° North 550 633 43,000  Level Oakland Center
02:43PM 42.4364 -122.6069 360° North 550 633 43,000  Level Seattle Center
02:44PM 42.5881 -122.6058 360° North 548 631 43,000  Level Seattle Center
02:45PM 42.7506 -122.6044 360° North 549 632 43,000  Level Seattle Center
02:46PM 42.9014 -122.6039 360° North 545 627 43,000  Level Seattle Center
02:47PM 43.0522 -122.6028 360° North 544 626 43,000  Level Seattle Center
02:48PM 43.2031 -122.6031 360° North 543 625 43,000  Level Seattle Center
02:49PM 43.3533 -122.6022 360° North 544 626 43,000  Level Seattle Center
02:50PM 43.5050 -122.6031 360° North 544 626 43,000  Level Seattle Center
02:51PM 43.6847 -122.6022 360° North 543 625 43,000  Level Seattle Center
02:52PM 43.8353 -122.6003 North 545 627 43,000  Level Seattle Center
02:53PM 43.9847 -122.6000 360° North 544 626 43,000  Level Seattle Center
02:54PM 44.1339 -122.5997 360° North 542 624 43,000  Level Seattle Center
02:55PM 44.2825 -122.5992 360° North 542 624 43,000  Level Seattle Center
02:56PM 44.4331 -122.5981 360° North 542 624 43,000  Level Seattle Center
02:57PM 44.5839 -122.5983 360° North 543 625 43,000  Level Seattle Center
02:58PM 44.7631 -122.5972 360° North 542 624 43,000  Level Seattle Center
02:59PM 44.8997 -122.5961 360° North 537 618 43,000  Level Seattle Center
03:00PM 45.0503 -122.5958 360° North 540 621 43,000  Level Seattle Center
03:01PM 45.2000 -122.5947 360° North 541 623 43,000  Level Seattle Center
03:03PM 45.3500 -122.5936 360° North 543 625 43,000  Level Seattle Center
03:04PM 45.5014 -122.5925 360° North 544 626 43,000 -60 Level Seattle Center
03:05PM 45.6822 -122.5914 360° North 544 626 42,900 -1,440 Descending Seattle Center
03:06PM 45.8331 -122.6086 355° North 546 628 40,100 -3,120 Descending Seattle Center
03:07PM 45.9803 -122.6328 353° North 538 619 36,600 -3,120 Descending Seattle Center
03:08PM 46.1292 -122.6550 354° North 541 623 33,800 -3,000 Descending Seattle Center
03:09PM 46.2975 -122.6814 354° North 561 646 30,600 -3,060 Descending Seattle Center
03:10PM 46.4539 -122.7081 353° North 565 650 27,600 -2,880 Descending Seattle Center
03:11PM 46.6017 -122.7350 353° North 540 621 24,800 -2,700 Descending Seattle Center
03:12PM 46.7386 -122.7558 354° North 500 575 22,200 -2,700 Descending Seattle Center
03:12PM 46.8072 -122.7686 353° North 470 541 20,900 -2,400 Descending Seattle Center
03:13PM 46.8658 -122.7778 354° North 464 534 19,800 -2,220 Descending Seattle Center
03:14PM 46.9922 -122.7958 354° North 405 466 17,400 -2,100 Descending Seattle Center
03:15PM 47.0842 -122.7597 15° North 352 405 15,600 -1,860 Descending Seattle Center
03:16PM 47.1592 -122.6633 41° Northeast 356 410 13,700 -1,920 Descending Seattle Center
03:17PM 47.2308 -122.5717 41° Northeast 342 394 11,700 -2,100 Descending Seattle Center
03:18PM 47.3081 -122.4750 40° Northeast 315 362 9,300 -1,740 Descending Seattle Center
03:19PM 47.3892 -122.4797 358° North 289 333 8,000 -840 Descending Seattle Center
03:20PM 47.4633 -122.4961 352° North 292 336 7,700 -1,020 Descending Seattle Center
03:21PM 47.5425 -122.5189 349° North 291 335 6,100 -1,800 Descending Seattle Center
03:22PM 47.6231 -122.5264 356° North 276 318 4,100 -1,860 Descending Seattle Center
03:23PM 47.6864 -122.4750 29° Northeast 277 319 2,300 -960 Descending Seattle Center
03:24PM 47.6514 -122.4067 127° Southeast 221 254 2,200 -360 Descending Seattle Center
03:25PM 47.6081 -122.3694 150° Southeast 164 189 1,600 -660 Descending Seattle Center
03:26PM 47.5722 -122.3389 150° Southeast 147 169 900 -780 Descending Seattle Center
03:27PM 47.5408 -122.3117 150° Southeast 139 160 100 -780 Descending Seattle Center
03:29PM 47.5300 -122.3020 96° East  Level Estimated